createdAt,value
2023-10-13T00:03:41.415Z,93.90
2023-10-13T00:06:12.714Z,93.93
2023-10-13T00:08:44.680Z,94.05
2023-10-13T00:11:19.538Z,94.04
2023-10-13T00:13:52.412Z,94.12
2023-10-13T00:16:28.099Z,94.02
2023-10-13T00:18:59.511Z,94.06
2023-10-13T00:21:33.599Z,94.10
2023-10-13T00:24:07.633Z,94.21
2023-10-13T00:26:39.069Z,94.33
2023-10-13T00:29:17.398Z,94.36
2023-10-13T00:31:50.168Z,94.31
2023-10-13T00:34:27.175Z,94.47
2023-10-13T00:40:02.765Z,94.41
2023-10-13T00:42:52.178Z,94.36
2023-10-13T00:45:24.852Z,94.39
2023-10-13T00:47:59.811Z,94.41
2023-10-13T00:50:37.667Z,94.33
2023-10-13T00:53:09.050Z,94.43
2023-10-13T00:55:42.755Z,94.50
2023-10-13T00:58:16.338Z,94.52
2023-10-13T01:00:49.129Z,94.52
2023-10-13T01:03:27.105Z,94.57
2023-10-13T01:06:00.313Z,94.57
2023-10-13T01:08:39.197Z,94.50
2023-10-13T01:11:11.770Z,94.44
2023-10-13T01:13:43.126Z,94.43
2023-10-13T01:16:15.896Z,94.50
2023-10-13T01:18:49.823Z,94.59
2023-10-13T01:21:22.182Z,94.70
2023-10-13T01:23:53.557Z,94.67
2023-10-13T01:26:25.976Z,94.79
2023-10-13T01:29:00.952Z,94.63
2023-10-13T01:31:38.697Z,94.68
2023-10-13T01:34:10.432Z,94.64
2023-10-13T01:36:41.837Z,94.70
2023-10-13T01:39:17.786Z,94.87
2023-10-13T01:41:55.032Z,94.87
2023-10-13T01:44:29.216Z,94.81
2023-10-13T01:47:07.273Z,94.93
2023-10-13T01:49:43.539Z,94.69
2023-10-13T01:52:17.073Z,94.69
2023-10-13T01:54:50.787Z,94.69
2023-10-13T01:57:25.388Z,94.72
2023-10-13T01:59:57.122Z,94.58
2023-10-13T02:02:31.509Z,94.54
2023-10-13T02:05:03.593Z,94.53
2023-10-13T02:07:36.093Z,94.49
2023-10-13T02:10:13.344Z,94.47
2023-10-13T02:12:47.398Z,94.49
2023-10-13T02:15:27.812Z,94.54
2023-10-13T02:18:01.182Z,94.42
2023-10-13T02:20:42.583Z,94.51
2023-10-13T02:23:13.824Z,94.50
2023-10-13T02:25:48.250Z,94.42
2023-10-13T02:28:29.124Z,94.53
2023-10-13T02:31:04.678Z,94.45
2023-10-13T02:33:37.072Z,94.45
2023-10-13T02:36:09.397Z,94.42
2023-10-13T02:38:46.860Z,94.42
2023-10-13T02:41:26.837Z,94.44
2023-10-13T02:43:58.650Z,94.45
2023-10-13T02:46:31.591Z,94.42
2023-10-13T02:49:10.480Z,94.63
2023-10-13T02:51:43.275Z,94.61
2023-10-13T02:54:19.498Z,94.72
2023-10-13T02:56:58.431Z,94.64
2023-10-13T02:59:40.231Z,94.72
2023-10-13T03:02:25.387Z,94.80
2023-10-13T03:05:00.595Z,94.69
2023-10-13T03:07:34.968Z,94.75
2023-10-13T03:10:12.006Z,94.58
2023-10-13T03:12:49.636Z,94.74
2023-10-13T03:15:22.675Z,94.74
2023-10-13T03:17:56.388Z,94.80
2023-10-13T03:20:32.710Z,94.88
2023-10-13T03:23:10.868Z,94.85
2023-10-13T03:25:44.833Z,94.66
2023-10-13T03:28:18.351Z,94.74
2023-10-13T03:30:54.118Z,94.68
2023-10-13T03:33:28.190Z,94.68
2023-10-13T03:36:07.090Z,94.62
2023-10-13T03:38:41.139Z,94.58
2023-10-13T03:41:21.472Z,94.64
2023-10-13T03:43:53.709Z,94.65
2023-10-13T03:46:24.921Z,94.66
2023-10-13T03:49:00.769Z,94.68
2023-10-13T03:51:33.422Z,94.73
2023-10-13T03:54:09.351Z,94.78
2023-10-13T03:56:45.363Z,94.72
2023-10-13T03:59:24.171Z,94.70
2023-10-13T04:02:00.807Z,94.70
2023-10-13T04:04:35.929Z,94.71
2023-10-13T04:07:31.526Z,94.62
2023-10-13T04:10:16.646Z,94.67
2023-10-13T04:13:05.073Z,94.57
2023-10-13T04:15:43.111Z,94.75
2023-10-13T04:18:34.988Z,94.82
2023-10-13T04:21:20.337Z,94.67
2023-10-13T04:24:08.916Z,94.98
2023-10-13T04:27:00.551Z,95.04
2023-10-13T04:29:46.483Z,95.04
2023-10-13T04:32:29.904Z,95.16
2023-10-13T04:35:10.225Z,95.07
2023-10-13T04:37:51.987Z,95.00
2023-10-13T04:40:27.325Z,94.95
2023-10-13T04:42:59.128Z,94.90
2023-10-13T04:45:48.139Z,95.01
2023-10-13T04:48:31.804Z,94.86
2023-10-13T04:51:51.216Z,94.77
2023-10-13T04:54:34.574Z,94.70
2023-10-13T04:57:26.862Z,94.80
2023-10-13T05:00:16.377Z,94.70
2023-10-13T05:03:17.972Z,94.66
2023-10-13T05:06:03.297Z,94.74
2023-10-13T05:08:52.678Z,94.76
2023-10-13T05:11:40.907Z,94.78
2023-10-13T05:14:29.972Z,94.68
2023-10-13T05:17:18.863Z,94.71
2023-10-13T05:20:07.844Z,94.63
2023-10-13T05:22:56.517Z,94.86
2023-10-13T05:25:45.231Z,94.82
2023-10-13T05:28:35.763Z,94.82
2023-10-13T05:31:25.952Z,94.87
2023-10-13T05:34:14.771Z,95.04
2023-10-13T05:37:03.442Z,95.12
2023-10-13T05:39:52.075Z,95.22
2023-10-13T05:42:40.982Z,95.19
2023-10-13T05:45:38.055Z,95.13
2023-10-13T05:48:15.342Z,95.17
2023-10-13T05:51:19.380Z,95.26
2023-10-13T05:54:07.995Z,95.35
2023-10-13T05:56:56.433Z,95.34
2023-10-13T05:59:45.215Z,95.51
2023-10-13T06:02:36.862Z,95.53
2023-10-13T06:05:27.950Z,95.64
2023-10-13T06:08:17.627Z,95.84
2023-10-13T06:11:15.455Z,95.86
2023-10-13T06:14:00.707Z,95.89
2023-10-13T06:16:50.969Z,95.83
2023-10-13T06:19:39.688Z,95.77
2023-10-13T06:22:28.638Z,95.81
2023-10-13T06:25:17.486Z,95.57
2023-10-13T06:28:17.837Z,95.55
2023-10-13T06:30:58.788Z,95.60
2023-10-13T06:33:33.188Z,95.78
2023-10-13T06:36:10.555Z,95.76
2023-10-13T06:38:42.679Z,95.58
2023-10-13T06:41:21.499Z,95.56
2023-10-13T06:44:00.912Z,95.59
2023-10-13T06:46:35.294Z,95.45
2023-10-13T06:49:06.649Z,95.41
2023-10-13T06:51:39.341Z,95.42
2023-10-13T06:54:20.153Z,95.43
2023-10-13T06:56:54.716Z,95.35
2023-10-13T06:59:28.260Z,95.30
2023-10-13T07:02:20.414Z,95.30
2023-10-13T07:05:08.707Z,95.38
2023-10-13T07:07:41.531Z,95.43
2023-10-13T07:10:14.600Z,95.27
2023-10-13T07:12:45.975Z,95.11
2023-10-13T07:15:21.607Z,95.08
2023-10-13T07:17:56.462Z,94.81
2023-10-13T07:20:36.121Z,94.88
2023-10-13T07:23:07.658Z,94.57
2023-10-13T07:25:41.818Z,94.16
2023-10-13T07:28:13.110Z,94.25
2023-10-13T07:30:50.827Z,94.14
2023-10-13T07:33:22.172Z,93.67
2023-10-13T07:36:12.144Z,93.15
2023-10-13T07:38:43.918Z,92.54
2023-10-13T07:41:17.023Z,92.28
2023-10-13T07:43:49.329Z,91.89
2023-10-13T07:46:27.110Z,91.61
2023-10-13T07:49:10.673Z,91.57
2023-10-13T07:51:45.588Z,91.23
2023-10-13T07:54:23.188Z,91.06
2023-10-13T07:56:56.064Z,90.69
2023-10-13T07:59:29.484Z,90.63
2023-10-13T08:02:15.116Z,90.17
2023-10-13T08:04:48.278Z,89.45
2023-10-13T08:07:29.230Z,89.37
2023-10-13T08:10:03.034Z,88.88
2023-10-13T08:12:34.311Z,89.15
2023-10-13T08:15:22.809Z,88.60
2023-10-13T08:17:54.331Z,88.89
2023-10-13T08:20:27.704Z,89.41
2023-10-13T08:23:14.423Z,89.39
2023-10-13T08:26:03.007Z,89.15
2023-10-13T08:28:58.243Z,88.58
2023-10-13T08:31:31.505Z,87.16
2023-10-13T08:34:08.214Z,87.13
2023-10-13T08:36:39.727Z,86.98
2023-10-13T08:39:38.424Z,87.33
2023-10-13T08:42:14.162Z,87.21
2023-10-13T08:44:53.160Z,86.99
2023-10-13T08:47:30.238Z,87.04
2023-10-13T08:50:11.993Z,86.51
2023-10-13T08:52:50.304Z,86.09
2023-10-13T08:55:47.964Z,85.69
2023-10-13T08:58:26.232Z,85.90
2023-10-13T09:01:13.129Z,85.74
2023-10-13T09:03:50.868Z,86.14
2023-10-13T09:06:23.909Z,85.83
2023-10-13T09:09:08.150Z,85.94
2023-10-13T09:11:51.728Z,85.88
2023-10-13T09:14:36.991Z,85.96
2023-10-13T09:17:35.102Z,85.88
2023-10-13T09:20:32.617Z,85.42
2023-10-13T09:23:13.695Z,85.82
2023-10-13T09:25:59.086Z,85.68
2023-10-13T09:28:32.958Z,85.67
2023-10-13T09:31:08.686Z,85.59
2023-10-13T09:33:48.750Z,85.42
2023-10-13T09:36:22.277Z,85.61
2023-10-13T09:39:13.407Z,85.44
2023-10-13T09:41:46.202Z,84.35
2023-10-13T09:44:19.283Z,84.22
2023-10-13T09:46:51.408Z,84.98
2023-10-13T09:49:46.291Z,83.89
2023-10-13T09:52:22.035Z,84.22
2023-10-13T09:55:14.714Z,83.86
2023-10-13T09:57:58.866Z,83.98
2023-10-13T10:00:48.174Z,83.78
2023-10-13T10:03:40.288Z,83.74
2023-10-13T10:06:18.550Z,83.35
2023-10-13T10:08:58.069Z,83.87
2023-10-13T10:12:03.508Z,83.75
2023-10-13T10:14:50.409Z,83.20
2023-10-13T10:17:22.834Z,83.45
2023-10-13T10:19:56.636Z,83.14
2023-10-13T10:22:34.991Z,82.72
2023-10-13T10:25:23.295Z,82.75
2023-10-13T10:28:00.483Z,82.49
2023-10-13T10:30:34.561Z,82.44
2023-10-13T10:33:13.628Z,82.66
2023-10-13T10:35:46.386Z,82.06
2023-10-13T10:38:26.116Z,81.50
2023-10-13T10:40:59.549Z,81.38
2023-10-13T10:43:43.496Z,81.19
2023-10-13T10:46:18.451Z,81.36
2023-10-13T10:48:49.992Z,81.09
2023-10-13T10:51:25.460Z,80.78
2023-10-13T10:53:59.344Z,81.08
2023-10-13T10:56:38.330Z,81.57
2023-10-13T10:59:19.576Z,81.21
2023-10-13T11:01:52.425Z,81.35
2023-10-13T11:04:34.922Z,81.11
2023-10-13T11:07:07.902Z,80.67
2023-10-13T11:09:39.303Z,80.56
2023-10-13T11:12:25.205Z,79.49
2023-10-13T11:15:15.297Z,79.04
2023-10-13T11:17:56.079Z,79.21
2023-10-13T11:20:34.110Z,79.12
2023-10-13T11:23:12.884Z,79.34
2023-10-13T11:25:46.072Z,79.29
2023-10-13T11:28:21.993Z,77.86
2023-10-13T11:30:53.444Z,77.92
2023-10-13T11:33:25.592Z,78.03
2023-10-13T11:36:03.734Z,78.15
2023-10-13T11:38:46.657Z,78.14
2023-10-13T11:41:21.058Z,78.13
2023-10-13T11:44:10.955Z,77.53
2023-10-13T11:47:02.156Z,77.34
2023-10-13T11:49:39.398Z,76.07
2023-10-13T11:52:19.881Z,76.69
2023-10-13T11:54:51.156Z,77.09
2023-10-13T11:57:22.741Z,76.58
2023-10-13T12:00:20.259Z,75.77
2023-10-13T12:03:09.455Z,75.18
2023-10-13T12:06:07.416Z,75.50
2023-10-13T12:08:50.393Z,76.03
2023-10-13T12:11:32.614Z,74.95
2023-10-13T12:14:13.052Z,75.73
2023-10-13T12:16:44.300Z,75.94
2023-10-13T12:19:17.689Z,75.85
2023-10-13T12:21:49.696Z,76.48
2023-10-13T12:24:40.981Z,76.36
2023-10-13T12:27:24.507Z,76.30
2023-10-13T12:29:57.865Z,76.94
2023-10-13T12:32:32.161Z,77.25
2023-10-13T12:35:17.770Z,77.32
2023-10-13T12:37:52.096Z,77.40
2023-10-13T12:40:41.592Z,77.44
2023-10-13T12:43:31.925Z,76.73
2023-10-13T12:46:20.796Z,76.40
2023-10-13T12:49:05.209Z,76.81
2023-10-13T12:51:51.963Z,76.65
2023-10-13T12:54:24.851Z,77.06
2023-10-13T12:56:58.366Z,76.94
2023-10-13T12:59:30.276Z,76.42
2023-10-13T13:02:01.643Z,76.73
2023-10-13T13:04:37.962Z,77.07
2023-10-13T13:07:14.516Z,76.96
2023-10-13T13:09:44.274Z,77.10
2023-10-13T13:12:15.572Z,77.30
2023-10-13T13:14:48.308Z,77.61
2023-10-13T13:17:19.541Z,77.66
2023-10-13T13:19:50.792Z,77.84
2023-10-13T13:22:22.176Z,77.78
2023-10-13T13:24:54.148Z,77.90
2023-10-13T13:27:26.165Z,77.99
2023-10-13T13:29:58.024Z,76.92
2023-10-13T13:32:30.117Z,76.26
2023-10-13T13:35:06.638Z,76.35
2023-10-13T13:37:38.699Z,77.13
2023-10-13T13:40:23.456Z,77.12
2023-10-13T13:42:58.249Z,76.45
2023-10-13T13:45:29.490Z,76.40
2023-10-13T13:48:00.673Z,76.31
2023-10-13T13:50:33.514Z,76.44
2023-10-13T13:53:10.269Z,76.31
2023-10-13T13:55:41.669Z,76.39
2023-10-13T13:58:14.356Z,76.49
2023-10-13T14:00:49.881Z,76.88
2023-10-13T14:03:33.338Z,77.38
2023-10-13T14:06:05.080Z,77.98
2023-10-13T14:08:36.239Z,78.36
2023-10-13T14:11:23.277Z,78.66
2023-10-13T14:13:57.180Z,78.66
2023-10-13T14:16:30.640Z,78.71
2023-10-13T14:19:03.317Z,79.28
2023-10-13T14:21:36.352Z,78.93
2023-10-13T14:24:17.815Z,78.82
2023-10-13T14:26:49.143Z,78.15
2023-10-13T14:29:20.909Z,77.08
2023-10-13T14:31:52.142Z,76.64
2023-10-13T14:34:23.959Z,76.31
2023-10-13T14:36:55.820Z,77.08
2023-10-13T14:39:31.295Z,76.48
2023-10-13T14:42:02.410Z,77.18
2023-10-13T14:44:33.673Z,76.91
2023-10-13T14:47:06.763Z,76.19
2023-10-13T14:49:38.366Z,75.63
2023-10-13T14:52:12.743Z,75.00
2023-10-13T14:54:44.369Z,74.25
2023-10-13T14:57:15.402Z,74.44
2023-10-13T14:59:46.580Z,73.98
2023-10-13T15:02:17.808Z,73.83
2023-10-13T15:04:50.654Z,73.47
2023-10-13T15:07:23.712Z,73.35
2023-10-13T15:09:58.153Z,73.11
2023-10-13T15:12:29.876Z,73.30
2023-10-13T15:15:01.221Z,73.19
2023-10-13T15:17:33.367Z,73.00
2023-10-13T15:20:09.499Z,72.84
2023-10-13T15:22:40.665Z,72.77
2023-10-13T15:25:22.357Z,72.99
2023-10-13T15:27:56.881Z,73.47
2023-10-13T15:30:32.383Z,73.30
2023-10-13T15:33:06.677Z,73.66
2023-10-13T15:35:40.137Z,74.25
2023-10-13T15:38:11.257Z,74.83
2023-10-13T15:40:45.843Z,75.32
2023-10-13T15:43:17.117Z,75.98
2023-10-13T15:45:48.371Z,76.23
2023-10-13T15:48:25.226Z,76.66
2023-10-13T15:50:57.205Z,77.08
2023-10-13T15:53:28.759Z,77.55
2023-10-13T15:55:59.892Z,77.71
2023-10-13T15:58:30.948Z,77.75
2023-10-13T16:01:02.178Z,78.33
2023-10-13T16:03:33.880Z,79.01
2023-10-13T16:06:10.935Z,79.63
2023-10-13T16:08:43.782Z,79.52
2023-10-13T16:11:18.942Z,79.60
2023-10-13T16:13:52.006Z,80.05
2023-10-13T16:16:25.798Z,80.30
2023-10-13T16:18:57.086Z,80.75
2023-10-13T16:21:28.578Z,81.20
2023-10-13T16:23:59.973Z,81.45
2023-10-13T16:26:31.972Z,81.69
2023-10-13T16:29:03.026Z,81.87
2023-10-13T16:31:34.114Z,82.22
2023-10-13T16:34:06.317Z,82.55
2023-10-13T16:36:37.498Z,82.69
2023-10-13T16:39:10.767Z,83.03
2023-10-13T16:41:42.612Z,83.33
2023-10-13T16:44:13.909Z,83.58
2023-10-13T16:46:45.184Z,83.70
2023-10-13T16:49:16.414Z,84.28
2023-10-13T16:51:47.634Z,84.73
2023-10-13T16:54:22.634Z,84.96
2023-10-13T16:56:56.941Z,84.97
2023-10-13T16:59:28.193Z,85.02
2023-10-13T17:01:59.226Z,85.23
2023-10-13T17:04:31.537Z,85.51
2023-10-13T17:07:02.765Z,85.79
2023-10-13T17:09:34.928Z,86.04
2023-10-13T17:12:06.390Z,86.27
2023-10-13T17:14:41.608Z,86.58
2023-10-13T17:17:12.765Z,86.62
2023-10-13T17:19:50.813Z,86.60
2023-10-13T17:22:22.098Z,86.34
2023-10-13T17:24:53.630Z,86.29
2023-10-13T17:27:24.788Z,86.63
2023-10-13T17:29:56.507Z,87.06
2023-10-13T17:32:27.624Z,87.18
2023-10-13T17:34:59.489Z,87.45
2023-10-13T17:37:34.844Z,87.63
2023-10-13T17:40:08.998Z,87.99
2023-10-13T17:42:40.212Z,87.90
2023-10-13T17:45:12.794Z,88.00
2023-10-13T17:47:44.737Z,88.06
2023-10-13T17:50:15.791Z,87.93
2023-10-13T17:52:49.368Z,87.83
2023-10-13T17:55:20.434Z,87.72
2023-10-13T17:57:51.922Z,87.60
2023-10-13T18:00:25.050Z,87.53
2023-10-13T18:02:56.082Z,87.62
2023-10-13T18:05:27.306Z,87.36
2023-10-13T18:08:00.338Z,87.44
2023-10-13T18:10:32.196Z,87.54
2023-10-13T18:13:03.249Z,87.50
2023-10-13T18:15:34.332Z,87.65
2023-10-13T18:18:05.826Z,87.66
2023-10-13T18:20:36.990Z,88.04
2023-10-13T18:23:12.720Z,88.83
2023-10-13T18:25:44.883Z,89.69
2023-10-13T18:28:16.005Z,89.56
2023-10-13T18:30:47.371Z,89.30
2023-10-13T18:33:20.662Z,89.19
2023-10-13T18:35:53.353Z,89.24
2023-10-13T18:38:26.985Z,89.20
2023-10-13T18:41:01.989Z,89.02
2023-10-13T18:43:33.040Z,89.03
2023-10-13T18:46:07.742Z,89.10
2023-10-13T18:48:40.589Z,89.26
2023-10-13T18:51:15.819Z,89.15
2023-10-13T18:53:50.620Z,89.36
2023-10-13T18:56:22.942Z,89.35
2023-10-13T18:58:56.268Z,89.36
2023-10-13T19:01:30.565Z,89.16
2023-10-13T19:04:05.458Z,89.12
2023-10-13T19:06:37.380Z,89.18
2023-10-13T19:09:09.561Z,89.04
2023-10-13T19:11:41.964Z,88.94
2023-10-13T19:14:12.969Z,89.02
2023-10-13T19:16:47.884Z,89.42
2023-10-13T19:19:19.298Z,89.38
2023-10-13T19:21:50.537Z,89.53
2023-10-13T19:24:22.715Z,89.46
2023-10-13T19:26:54.424Z,89.30
2023-10-13T19:29:25.597Z,89.45
2023-10-13T19:31:56.995Z,89.66
2023-10-13T19:34:28.313Z,89.66
2023-10-13T19:37:04.650Z,89.54
2023-10-13T19:39:42.136Z,89.46
2023-10-13T19:42:15.086Z,89.52
2023-10-13T19:44:47.414Z,89.62
2023-10-13T19:47:18.416Z,89.80
2023-10-13T19:49:49.464Z,89.88
2023-10-13T19:52:23.342Z,90.27
2023-10-13T19:54:57.194Z,90.43
2023-10-13T19:57:28.675Z,90.45
2023-10-13T19:59:59.949Z,90.70
2023-10-13T20:02:33.855Z,90.76
2023-10-13T20:05:06.187Z,90.15
2023-10-13T20:07:39.243Z,90.00
2023-10-13T20:10:11.459Z,90.00
2023-10-13T20:12:43.115Z,90.15
2023-10-13T20:15:15.122Z,90.24
2023-10-13T20:17:47.178Z,90.29
2023-10-13T20:20:21.310Z,89.95
2023-10-13T20:22:52.703Z,90.03
2023-10-13T20:25:25.090Z,89.75
2023-10-13T20:27:56.269Z,90.08
2023-10-13T20:30:27.652Z,90.28
2023-10-13T20:32:58.857Z,90.38
2023-10-13T20:35:31.241Z,90.14
2023-10-13T20:38:03.576Z,90.03
2023-10-13T20:40:34.711Z,89.85
2023-10-13T20:43:06.204Z,90.14
2023-10-13T20:45:39.878Z,90.03
2023-10-13T20:48:11.571Z,90.06
2023-10-13T20:50:42.593Z,89.93
2023-10-13T20:53:15.327Z,89.94
2023-10-13T20:55:47.578Z,90.38
2023-10-13T20:58:18.869Z,90.37
2023-10-13T21:00:50.087Z,90.46
2023-10-13T21:03:21.523Z,90.47
2023-10-13T21:05:55.407Z,90.21
2023-10-13T21:08:27.265Z,90.07
2023-10-13T21:11:01.590Z,90.46
2023-10-13T21:13:33.707Z,90.63
2023-10-13T21:16:10.887Z,90.49
2023-10-13T21:18:43.876Z,90.55
2023-10-13T21:21:20.778Z,90.38
2023-10-13T21:23:54.839Z,90.51
2023-10-13T21:26:29.928Z,90.07
2023-10-13T21:29:02.113Z,89.85
2023-10-13T21:31:34.152Z,90.17
2023-10-13T21:34:07.486Z,90.02
2023-10-13T21:36:39.064Z,90.02
2023-10-13T21:39:12.005Z,89.91
2023-10-13T21:41:43.499Z,90.12
2023-10-13T21:44:15.392Z,90.37
2023-10-13T21:46:47.393Z,90.21
2023-10-13T21:49:19.855Z,90.24
2023-10-13T21:51:51.344Z,90.07
2023-10-13T21:54:22.524Z,89.91
2023-10-13T21:56:54.192Z,89.45
2023-10-13T21:59:25.369Z,90.06
2023-10-13T22:01:56.594Z,89.86
2023-10-13T22:04:32.694Z,89.70
2023-10-13T22:07:04.628Z,89.60
2023-10-13T22:09:37.420Z,89.62
2023-10-13T22:12:10.799Z,89.54
2023-10-13T22:14:41.907Z,89.71
2023-10-13T22:17:15.940Z,89.28
2023-10-13T22:19:50.503Z,89.38
2023-10-13T22:22:21.735Z,89.93
2023-10-13T22:24:52.889Z,90.57
2023-10-13T22:27:24.790Z,90.69
2023-10-13T22:29:57.739Z,90.27
2023-10-13T22:32:29.067Z,89.98
2023-10-13T22:35:01.108Z,89.68
2023-10-13T22:37:34.956Z,89.61
2023-10-13T22:40:13.273Z,89.61
2023-10-13T22:42:45.286Z,89.38
2023-10-13T22:45:20.106Z,89.44
2023-10-13T22:47:54.444Z,89.60
2023-10-13T22:50:27.010Z,89.46
2023-10-13T22:52:59.703Z,89.31
2023-10-13T22:55:37.574Z,89.35
2023-10-13T22:58:11.090Z,89.62
2023-10-13T23:00:56.150Z,89.69
2023-10-13T23:03:36.624Z,89.61
2023-10-13T23:06:11.818Z,89.76
2023-10-13T23:08:42.986Z,89.90
2023-10-13T23:11:20.986Z,90.03
2023-10-13T23:13:53.283Z,90.17
2023-10-13T23:16:26.129Z,90.25
2023-10-13T23:18:59.641Z,90.40
2023-10-13T23:21:31.026Z,90.29
2023-10-13T23:24:05.523Z,90.12
2023-10-13T23:26:36.583Z,90.01
2023-10-13T23:29:11.277Z,90.02
2023-10-13T23:31:45.167Z,90.10
2023-10-13T23:34:18.042Z,90.13
2023-10-13T23:36:49.725Z,90.22
2023-10-13T23:39:34.416Z,90.36
2023-10-13T23:42:08.754Z,90.23
2023-10-13T23:44:40.224Z,90.41
2023-10-13T23:47:11.793Z,90.46
2023-10-13T23:49:43.685Z,90.44
2023-10-13T23:52:15.180Z,90.09
2023-10-13T23:54:55.415Z,90.12
2023-10-13T23:57:27.713Z,90.43
2023-10-13T23:59:59.016Z,90.44
